Mazong Shan, China
Current Conditions -  °F | °C
As of 4:30 PM on Monday 26 Jan 2015 (Local Time) from ZWWW Reporting Station
Light Snow Light Snow  
Wind Chill:   Ceiling: 1100
Heat Index: 12°   Visibility: 1mi
Dew Point:   Wind: 4mph
Humidity: 79%   Direction: 290°WNW
Pressure: 30.5"   Gusts: NA
Location:  41.8°N, 97.03°E
Report Text: ZWWW 260830Z 29002MPS 250V340 1600 R25/1300N -SN BKN011BKN020M11/M14 Q1033 NOSIG
Loading
Personal Weather Stations






























Interactive Weather Map New forecast layout! Learn more

10-Day Weather Forecast

Advertisements
Track Severe Weather on mobile